Zielona Gora, Poland

11:11 AM CET on January 31, 2015 (GMT +0100)
Babimost | Change Station
CLOSE
Current Station
Airport
Location: Zielona Gora,
Elevation: 194 ft
Nearby Weather Stations

Elev 194 ft 52.14 °N, 15.80 °E | Updated 11 minutes ago

Mostly Cloudy
Mostly Cloudy
34 °F
Feels Like 24 °F
N
15
Wind Variable Wind from WSW

Today
High -- | Low -- °F
--% Chance of Precip.
Yesterday
High -- | Low -- °F
Precip. -- in
7:39 AM 4:41 PM
Waxing Gibbous, 89% visible
Pressure 28.91 in
Visibility 6.2 miles
Clouds Scattered Clouds 1600 ft
Mostly Cloudy 2000 ft
Windchill 24 °F
Dew Point 30 °F
Humidity 87%
Rainfall 0.00 in
Snow Depth Not available.
UV 1 out of 12
Pollen Not available.
Air Quality Not available.
Flu Activity Not available.
METAR EPZG 311000Z 24013KT 9999 SCT016 BKN020 01/M01 Q0979

More Conditions Fewer Conditions

Pressure 28.91 in
Visibility 6.2 miles
Clouds Scattered Clouds 1600 ft
Mostly Cloudy 2000 ft
Windchill 24 °F
Dew Point 30 °F
Humidity 87%
Rainfall 0.00 in
Snow Depth Not available.
UV 1 out of 12
Pollen Not available.
Air Quality Not available.
Flu Activity Not available.
METAR EPZG 311000Z 24013KT 9999 SCT016 BKN020 01/M01 Q0979

More Conditions Fewer Conditions

10-Day Weather Forecast

Almanac

Astronomy

Jan. 31, 2015 Rise Set
Actual Time
Civil Twilight
Nautical Twilight
Astronomical Twilight
Moon
Length of Visible Light
Length of Day
Tomorrow will be .
, % of the Moon is Illuminated

Today's Extremes

Country Highs Country Lows

Community

WunderPhotos

Upload Photos

1,792,029 photos uploaded!

WunderBlogs® & News

Nearby

Air Quality

  Air Quality AQ Index Pollutant
Not available.

Snow Depth

Station Depth Elevation

Earthquake Activity

City Distance Mag. Time & Date
Minimum magnitude displayed is 2.5.

Coastal Water Temperatures

Place Temperature

Nearby Weather Stations